Terminal Aerodrome Forecast
Issued by NWS

Home | Current Version | Previous Version | Text Only | Print | Product List | Glossary On
Versions: 1 2 3 4 5 6 7 8 9 10 11 12 13 14 15 16 17
000
FTUS46 KOTX 241135
TAFMWH
TAF
KMWH 241135Z 2412/2512 16013KT P6SM -RA BKN050 OVC080
     FM241400 18015KT P6SM VCSH SCT050 BKN090
     FM241600 23017G25KT P6SM -SHRA VCTS SCT050CB BKN090
     FM242000 25019G29KT P6SM VCSH SCT050 BKN120
     FM250200 24009KT P6SM SCT060=

USA.gov is the U.S. government's official web portal to all federal, state and local government web resources and services.